Time,TemperatureF,DewpointF,PressureIn,WindDirection,WindDirectionDegrees,WindSpeedMPH,WindSpeedGustMPH,Humidity,HourlyPrecipIn,Conditions,Clouds,dailyrainin,SoftwareType,DateUTC
2013-04-24 00:02:00,72.9,15.4,29.79,NNE,32,3.0,6.0,11,0.00,,---,0.00,VWS V14.00,2013-04-24 07:02:00,
2013-04-24 00:07:00,72.7,17.2,29.79,NNE,32,3.0,4.0,12,0.00,,---,0.00,VWS V14.00,2013-04-24 07:07:00,
2013-04-24 00:12:00,72.6,17.1,29.79,NNE,32,0.0,1.0,12,0.00,,---,0.00,VWS V14.00,2013-04-24 07:12:00,
2013-04-24 00:17:00,72.6,17.1,29.79,NNE,32,0.0,0.0,12,0.00,,---,0.00,VWS V14.00,2013-04-24 07:17:00,
2013-04-24 00:22:00,72.6,17.1,29.79,NNE,32,0.0,0.0,12,0.00,,---,0.00,VWS V14.00,2013-04-24 07:22:00,
2013-04-24 00:27:00,72.4,17.0,29.79,NNE,32,0.0,0.0,12,0.00,,---,0.00,VWS V14.00,2013-04-24 07:27:00,
2013-04-24 00:32:00,72.4,17.0,29.79,NNE,32,0.0,0.0,12,0.00,,---,0.00,VWS V14.00,2013-04-24 07:32:00,
2013-04-24 00:37:00,72.2,16.8,29.79,NNE,32,0.0,0.0,12,0.00,,---,0.00,VWS V14.00,2013-04-24 07:37:00,
2013-04-24 00:42:00,72.1,16.7,29.80,NNE,32,0.0,0.0,12,0.00,,---,0.00,VWS V14.00,2013-04-24 07:42:00,
2013-04-24 00:47:00,72.0,16.6,29.79,NNE,32,0.0,0.0,12,0.00,,---,0.00,VWS V14.00,2013-04-24 07:47:00,
2013-04-24 00:53:00,72.0,16.6,29.79,NNE,32,0.0,0.0,12,0.00,,---,0.00,VWS V14.00,2013-04-24 07:53:00,
2013-04-24 00:58:00,72.2,16.8,29.79,NNE,32,0.0,0.0,12,0.00,,---,0.00,VWS V14.00,2013-04-24 07:58:00,
2013-04-24 01:03:00,72.7,17.2,29.79,NNE,32,3.0,3.0,12,0.00,,---,0.00,VWS V14.00,2013-04-24 08:03:00,
2013-04-24 01:08:00,73.2,15.6,29.79,NNE,32,3.0,5.0,11,0.00,,---,0.00,VWS V14.00,2013-04-24 08:08:00,
2013-04-24 01:13:00,73.3,17.7,29.79,NNE,32,2.0,4.0,12,0.00,,---,0.00,VWS V14.00,2013-04-24 08:13:00,
2013-04-24 01:18:00,73.3,17.7,29.78,NNE,32,0.0,2.0,12,0.00,,---,0.00,VWS V14.00,2013-04-24 08:18:00,
2013-04-24 01:23:00,72.9,19.2,29.78,NNE,32,0.0,0.0,13,0.00,,---,0.00,VWS V14.00,2013-04-24 08:23:00,
2013-04-24 01:28:00,72.5,17.0,29.78,NNE,32,0.0,0.0,12,0.00,,---,0.00,VWS V14.00,2013-04-24 08:28:00,
2013-04-24 01:33:00,72.5,17.0,29.78,NNE,32,0.0,0.0,12,0.00,,---,0.00,VWS V14.00,2013-04-24 08:33:00,
2013-04-24 01:38:00,72.2,16.8,29.77,NNE,32,0.0,0.0,12,0.00,,---,0.00,VWS V14.00,2013-04-24 08:38:00,
2013-04-24 01:43:00,71.6,18.2,29.77,NNE,32,2.0,3.0,13,0.00,,---,0.00,VWS V14.00,2013-04-24 08:43:00,
2013-04-24 01:48:00,71.8,18.4,29.77,NNE,32,1.0,2.0,13,0.00,,---,0.00,VWS V14.00,2013-04-24 08:48:00,
2013-04-24 01:53:00,72.1,18.6,29.77,NNE,32,3.0,5.0,13,0.00,,---,0.00,VWS V14.00,2013-04-24 08:53:00,
2013-04-24 01:58:00,72.2,16.8,29.77,NNE,32,3.0,6.0,12,0.00,,---,0.00,VWS V14.00,2013-04-24 08:58:00,
2013-04-24 02:03:00,72.2,18.7,29.77,NNE,32,1.0,3.0,13,0.00,,---,0.00,VWS V14.00,2013-04-24 09:03:00,
2013-04-24 02:08:00,72.0,18.5,29.77,NNE,32,0.0,2.0,13,0.00,,---,0.00,VWS V14.00,2013-04-24 09:08:00,
2013-04-24 02:13:00,71.8,16.5,29.77,NNE,32,0.0,2.0,12,0.00,,---,0.00,VWS V14.00,2013-04-24 09:13:00,
2013-04-24 02:18:00,71.6,16.3,29.77,NNE,32,0.0,2.0,12,0.00,,---,0.00,VWS V14.00,2013-04-24 09:18:00,
2013-04-24 02:23:00,71.3,16.1,29.76,NNE,32,2.0,4.0,12,0.00,,---,0.00,VWS V14.00,2013-04-24 09:23:00,
2013-04-24 02:28:00,71.4,16.2,29.76,NNE,32,2.0,5.0,12,0.00,,---,0.00,VWS V14.00,2013-04-24 09:28:00,
2013-04-24 02:33:00,71.5,18.1,29.76,NNE,32,0.0,2.0,13,0.00,,---,0.00,VWS V14.00,2013-04-24 09:33:00,
2013-04-24 02:38:00,71.2,16.0,29.76,NNE,32,4.0,4.0,12,0.00,,---,0.00,VWS V14.00,2013-04-24 09:38:00,
2013-04-24 02:43:00,71.2,16.0,29.76,NNE,32,0.0,3.0,12,0.00,,---,0.00,VWS V14.00,2013-04-24 09:43:00,
2013-04-24 02:48:00,70.9,15.8,29.76,NNE,32,8.0,11.0,12,0.00,,---,0.00,VWS V14.00,2013-04-24 09:48:00,
2013-04-24 02:53:00,70.3,20.5,29.77,NNE,32,8.0,15.0,15,0.00,,---,0.00,VWS V14.00,2013-04-24 09:53:00,
2013-04-24 02:58:00,69.4,22.7,29.76,NNE,32,6.0,13.0,17,0.00,,---,0.00,VWS V14.00,2013-04-24 09:58:00,
2013-04-24 03:03:00,68.8,23.6,29.76,NNE,32,7.0,12.0,18,0.00,,---,0.00,VWS V14.00,2013-04-24 10:03:00,
2013-04-24 03:08:00,68.3,25.7,29.76,NNE,32,3.0,14.0,20,0.00,,---,0.00,VWS V14.00,2013-04-24 10:08:00,
2013-04-24 03:13:00,67.9,26.6,29.76,NNE,32,6.0,11.0,21,0.00,,---,0.00,VWS V14.00,2013-04-24 10:13:00,
2013-04-24 03:18:00,67.7,27.5,29.76,NNE,32,12.0,13.0,22,0.00,,---,0.00,VWS V14.00,2013-04-24 10:18:00,
2013-04-24 03:23:00,67.5,27.4,29.76,NNE,32,9.0,13.0,22,0.00,,---,0.00,VWS V14.00,2013-04-24 10:23:00,
2013-04-24 03:28:00,67.6,27.4,29.76,NNE,32,4.0,12.0,22,0.00,,---,0.00,VWS V14.00,2013-04-24 10:28:00,
2013-04-24 03:33:00,67.5,27.4,29.76,NNE,32,1.0,7.0,22,0.00,,---,0.00,VWS V14.00,2013-04-24 10:33:00,
2013-04-24 03:38:00,67.5,22.5,29.76,NNE,32,0.0,2.0,18,0.00,,---,0.00,VWS V14.00,2013-04-24 10:38:00,
2013-04-24 03:43:00,67.8,18.5,29.76,NNE,32,4.0,6.0,15,0.00,,---,0.00,VWS V14.00,2013-04-24 10:43:00,
2013-04-24 03:48:00,68.3,17.3,29.76,NNE,32,2.0,4.0,14,0.00,,---,0.00,VWS V14.00,2013-04-24 10:48:00,
2013-04-24 03:53:00,68.3,17.3,29.76,NNE,32,0.0,1.0,14,0.00,,---,0.00,VWS V14.00,2013-04-24 10:53:00,
2013-04-24 03:58:00,68.5,17.5,29.76,NNE,32,0.0,0.0,14,0.00,,---,0.00,VWS V14.00,2013-04-24 10:58:00,
2013-04-24 04:03:00,68.8,17.7,29.76,NNE,32,2.0,2.0,14,0.00,,---,0.00,VWS V14.00,2013-04-24 11:03:00,
2013-04-24 04:08:00,68.5,19.1,29.76,NNE,32,4.0,7.0,15,0.00,,---,0.00,VWS V14.00,2013-04-24 11:08:00,
2013-04-24 04:13:00,68.7,19.2,29.76,NNE,32,7.0,8.0,15,0.00,,---,0.00,VWS V14.00,2013-04-24 11:13:00,
2013-04-24 04:18:00,69.1,19.5,29.76,NNE,32,2.0,7.0,15,0.00,,---,0.00,VWS V14.00,2013-04-24 11:18:00,
2013-04-24 04:23:00,68.9,20.9,29.76,NNE,32,4.0,6.0,16,0.00,,---,0.00,VWS V14.00,2013-04-24 11:23:00,
2013-04-24 04:28:00,68.5,23.4,29.76,NNE,32,10.0,11.0,18,0.00,,---,0.00,VWS V14.00,2013-04-24 11:28:00,
2013-04-24 04:33:00,67.9,24.1,29.76,NNE,32,1.0,9.0,19,0.00,,---,0.00,VWS V14.00,2013-04-24 11:33:00,
2013-04-24 04:38:00,67.7,19.9,29.76,NNE,32,0.0,3.0,16,0.00,,---,0.00,VWS V14.00,2013-04-24 11:38:00,
2013-04-24 04:43:00,67.5,18.3,29.76,NNE,32,0.0,0.0,15,0.00,,---,0.00,VWS V14.00,2013-04-24 11:43:00,
2013-04-24 04:48:00,67.1,17.9,29.76,NNE,32,0.0,0.0,15,0.00,,---,0.00,VWS V14.00,2013-04-24 11:48:00,
2013-04-24 04:53:00,67.0,17.9,29.76,NNE,32,0.0,0.0,15,0.00,,---,0.00,VWS V14.00,2013-04-24 11:53:00,
2013-04-24 04:58:00,67.0,17.9,29.76,NNE,32,0.0,0.0,15,0.00,,---,0.00,VWS V14.00,2013-04-24 11:58:00,
2013-04-24 05:03:00,68.0,17.1,29.76,NNE,32,0.0,0.0,14,0.00,,---,0.00,VWS V14.00,2013-04-24 12:03:00,
2013-04-24 05:08:00,68.3,17.3,29.76,NNE,32,0.0,0.0,14,0.00,,---,0.00,VWS V14.00,2013-04-24 12:08:00,
2013-04-24 05:13:00,68.0,17.1,29.76,NNE,32,0.0,0.0,14,0.00,,---,0.00,VWS V14.00,2013-04-24 12:13:00,
2013-04-24 05:18:00,67.4,18.2,29.76,NNE,32,7.0,7.0,15,0.00,,---,0.00,VWS V14.00,2013-04-24 12:18:00,
2013-04-24 05:23:00,67.3,19.6,29.76,NNE,32,2.0,8.0,16,0.00,,---,0.00,VWS V14.00,2013-04-24 12:23:00,
2013-04-24 05:28:00,67.4,21.1,29.76,NNE,32,8.0,10.0,17,0.00,,---,0.00,VWS V14.00,2013-04-24 12:28:00,
2013-04-24 05:33:00,67.4,22.5,29.76,NNE,32,3.0,10.0,18,0.00,,---,0.00,VWS V14.00,2013-04-24 12:33:00,
2013-04-24 05:38:00,67.0,22.1,29.76,NNE,32,9.0,10.0,18,0.00,,---,0.00,VWS V14.00,2013-04-24 12:38:00,
2013-04-24 05:43:00,66.7,21.9,29.76,NNE,32,6.0,10.0,18,0.00,,---,0.00,VWS V14.00,2013-04-24 12:43:00,
2013-04-24 05:48:00,66.4,21.6,29.76,NNE,31,4.0,11.0,18,0.00,,---,0.00,VWS V14.00,2013-04-24 12:48:00,
2013-04-24 05:53:00,66.1,21.4,29.77,NNE,32,6.0,12.0,18,0.00,,---,0.00,VWS V14.00,2013-04-24 12:53:00,
2013-04-24 05:58:00,65.9,22.5,29.77,NNE,32,2.0,9.0,19,0.00,,---,0.00,VWS V14.00,2013-04-24 12:58:00,
2013-04-24 06:03:00,65.6,22.3,29.77,NNE,32,1.0,6.0,19,0.00,,---,0.00,VWS V14.00,2013-04-24 13:03:00,
2013-04-24 06:08:00,65.7,22.3,29.77,NNE,32,2.0,4.0,19,0.00,,---,0.00,VWS V14.00,2013-04-24 13:08:00,
2013-04-24 06:13:00,65.7,19.7,29.77,NNE,32,1.0,2.0,17,0.00,,---,0.00,VWS V14.00,2013-04-24 13:13:00,
2013-04-24 06:18:00,65.6,19.6,29.77,NNE,32,0.0,0.0,17,0.00,,---,0.00,VWS V14.00,2013-04-24 13:18:00,
2013-04-24 06:23:00,65.4,18.1,29.77,NNE,32,2.0,4.0,16,0.00,,---,0.00,VWS V14.00,2013-04-24 13:23:00,
2013-04-24 06:28:00,66.3,17.3,29.78,NNE,32,1.0,2.0,15,0.00,,---,0.00,VWS V14.00,2013-04-24 13:28:00,
2013-04-24 06:33:00,67.4,18.2,29.78,NNE,32,1.0,2.0,15,0.00,,---,0.00,VWS V14.00,2013-04-24 13:33:00,
2013-04-24 06:38:00,68.3,17.3,29.78,NNE,32,0.0,0.0,14,0.00,,---,0.00,VWS V14.00,2013-04-24 13:38:00,
2013-04-24 06:43:00,69.0,17.9,29.78,NNE,32,0.0,0.0,14,0.00,,---,0.00,VWS V14.00,2013-04-24 13:43:00,
2013-04-24 06:48:00,69.4,16.5,29.78,NNE,32,0.0,0.0,13,0.00,,---,0.00,VWS V14.00,2013-04-24 13:48:00,
2013-04-24 06:53:00,69.7,16.7,29.78,NNE,32,0.0,0.0,13,0.00,,---,0.00,VWS V14.00,2013-04-24 13:53:00,
2013-04-24 06:58:00,69.7,18.4,29.78,NNE,32,0.0,0.0,14,0.00,,---,0.00,VWS V14.00,2013-04-24 13:58:00,
2013-04-24 07:03:00,69.6,16.6,29.78,NNE,32,0.0,0.0,13,0.00,,---,0.00,VWS V14.00,2013-04-24 14:03:00,
2013-04-24 07:08:00,69.9,20.2,29.78,NNE,32,0.0,0.0,15,0.00,,---,0.00,VWS V14.00,2013-04-24 14:08:00,
2013-04-24 07:13:00,69.1,19.5,29.79,NNE,32,2.0,4.0,15,0.00,,---,0.00,VWS V14.00,2013-04-24 14:13:00,
2013-04-24 07:18:00,68.9,20.9,29.79,NNE,32,3.0,4.0,16,0.00,,---,0.00,VWS V14.00,2013-04-24 14:18:00,
2013-04-24 07:24:00,69.2,21.1,29.79,NNE,32,1.0,4.0,16,0.00,,---,0.00,VWS V14.00,2013-04-24 14:24:00,
2013-04-24 07:29:00,69.5,19.9,29.79,NNE,32,1.0,5.0,15,0.00,,---,0.00,VWS V14.00,2013-04-24 14:29:00,
2013-04-24 07:34:00,70.0,20.3,29.79,NNE,32,1.0,5.0,15,0.00,,---,0.00,VWS V14.00,2013-04-24 14:34:00,
2013-04-24 07:39:00,70.4,20.6,29.79,NNE,32,0.0,4.0,15,0.00,,---,0.00,VWS V14.00,2013-04-24 14:39:00,
2013-04-24 07:44:00,70.9,21.0,29.79,NNE,32,1.0,4.0,15,0.00,,---,0.00,VWS V14.00,2013-04-24 14:44:00,
2013-04-24 07:49:00,71.4,19.8,29.79,NNE,32,0.0,4.0,14,0.00,,---,0.00,VWS V14.00,2013-04-24 14:49:00,
2013-04-24 07:54:00,71.9,20.2,29.79,NNE,32,0.0,0.0,14,0.00,,---,0.00,VWS V14.00,2013-04-24 14:54:00,
2013-04-24 07:59:00,72.3,20.5,29.80,NNE,32,0.0,0.0,14,0.00,,---,0.00,VWS V14.00,2013-04-24 14:59:00,
2013-04-24 08:04:00,72.8,19.1,29.80,NNE,32,0.0,3.0,13,0.00,,---,0.00,VWS V14.00,2013-04-24 15:04:00,
2013-04-24 08:09:00,73.2,21.2,29.80,NNE,32,0.0,0.0,14,0.00,,---,0.00,VWS V14.00,2013-04-24 15:09:00,
2013-04-24 08:16:00,73.7,21.6,29.80,NNE,32,0.0,0.0,14,0.00,,---,0.00,VWS V14.00,2013-04-24 15:16:00,
2013-04-24 08:21:00,74.1,21.9,29.81,NNE,32,0.0,0.0,14,0.00,,---,0.00,VWS V14.00,2013-04-24 15:21:00,
2013-04-24 08:26:00,74.5,18.6,29.81,NNE,32,0.0,0.0,12,0.00,,---,0.00,VWS V14.00,2013-04-24 15:26:00,
2013-04-24 08:31:00,75.1,19.1,29.81,NNE,32,0.0,0.0,12,0.00,,---,0.00,VWS V14.00,2013-04-24 15:31:00,
2013-04-24 08:36:00,75.6,17.4,29.81,NNE,32,3.0,4.0,11,0.00,,---,0.00,VWS V14.00,2013-04-24 15:36:00,
2013-04-24 08:41:00,76.0,17.7,29.81,NNE,32,4.0,7.0,11,0.00,,---,0.00,VWS V14.00,2013-04-24 15:41:00,
2013-04-24 08:46:00,76.2,19.9,29.81,NNE,32,6.0,9.0,12,0.00,,---,0.00,VWS V14.00,2013-04-24 15:46:00,
2013-04-24 08:51:00,76.6,20.2,29.81,NNE,32,5.0,9.0,12,0.00,,---,0.00,VWS V14.00,2013-04-24 15:51:00,
2013-04-24 08:56:00,77.3,18.8,29.82,NE,42,13.0,16.0,11,0.00,,---,0.00,VWS V14.00,2013-04-24 15:56:00,
2013-04-24 09:01:00,77.6,19.0,29.82,ENE,57,14.0,14.0,11,0.00,,---,0.00,VWS V14.00,2013-04-24 16:01:00,
2013-04-24 09:06:00,77.7,19.0,29.82,ENE,65,13.0,16.0,11,0.00,,---,0.00,VWS V14.00,2013-04-24 16:06:00,
2013-04-24 09:11:00,78.0,19.3,29.82,East,82,10.0,20.0,11,0.00,,---,0.00,VWS V14.00,2013-04-24 16:11:00,
2013-04-24 09:16:00,78.0,21.3,29.82,East,97,23.0,23.0,12,0.00,,---,0.00,VWS V14.00,2013-04-24 16:16:00,
2013-04-24 09:21:00,78.4,21.6,29.82,ESE,109,17.0,24.0,12,0.00,,---,0.00,VWS V14.00,2013-04-24 16:21:00,
2013-04-24 09:26:00,78.5,21.7,29.82,ESE,113,16.0,23.0,12,0.00,,---,0.00,VWS V14.00,2013-04-24 16:26:00,
2013-04-24 09:31:00,78.5,21.7,29.82,ESE,121,15.0,26.0,12,0.00,,---,0.00,VWS V14.00,2013-04-24 16:31:00,
2013-04-24 09:36:00,78.3,25.2,29.82,ESE,123,10.0,25.0,14,0.00,,---,0.00,VWS V14.00,2013-04-24 16:36:00,
2013-04-24 09:41:00,78.6,23.7,29.82,ESE,123,12.0,19.0,13,0.00,,---,0.00,VWS V14.00,2013-04-24 16:41:00,
2013-04-24 09:46:00,78.7,21.9,29.82,ESE,123,16.0,26.0,12,0.00,,---,0.00,VWS V14.00,2013-04-24 16:46:00,
2013-04-24 09:51:00,78.9,27.4,29.83,SE,124,10.0,21.0,15,0.00,,---,0.00,VWS V14.00,2013-04-24 16:51:00,
2013-04-24 09:56:00,78.9,28.9,29.83,SE,140,10.0,23.0,16,0.00,,---,0.00,VWS V14.00,2013-04-24 16:56:00,
2013-04-24 10:01:00,78.7,31.7,29.83,SE,140,10.0,19.0,18,0.00,,---,0.00,VWS V14.00,2013-04-24 17:01:00,
2013-04-24 10:06:00,78.0,32.4,29.82,SE,143,6.0,20.0,19,0.00,,---,0.00,VWS V14.00,2013-04-24 17:06:00,
2013-04-24 10:11:00,78.1,31.2,29.83,SSE,149,14.0,22.0,18,0.00,,---,0.00,VWS V14.00,2013-04-24 17:11:00,
2013-04-24 10:16:00,77.5,32.0,29.82,SSE,147,16.0,21.0,19,0.00,,---,0.00,VWS V14.00,2013-04-24 17:16:00,
2013-04-24 10:21:00,77.6,29.4,29.82,SSE,148,12.0,22.0,17,0.00,,---,0.00,VWS V14.00,2013-04-24 17:21:00,
2013-04-24 10:26:00,77.7,29.5,29.82,SSE,148,11.0,22.0,17,0.00,,---,0.00,VWS V14.00,2013-04-24 17:26:00,
2013-04-24 10:34:00,77.5,29.3,29.82,SSE,148,13.0,20.0,17,0.00,,---,0.00,VWS V14.00,2013-04-24 17:34:00,
2013-04-24 10:39:00,77.6,26.3,29.82,SSE,150,12.0,19.0,15,0.00,,---,0.00,VWS V14.00,2013-04-24 17:39:00,
2013-04-24 10:44:00,77.9,28.1,29.82,SSE,151,10.0,15.0,16,0.00,,---,0.00,VWS V14.00,2013-04-24 17:44:00,
2013-04-24 10:49:00,78.4,28.5,29.83,SSE,152,12.0,20.0,16,0.00,,---,0.00,VWS V14.00,2013-04-24 17:49:00,
2013-04-24 10:54:00,78.6,28.7,29.82,SSE,152,2.0,13.0,16,0.00,,---,0.00,VWS V14.00,2013-04-24 17:54:00,
2013-04-24 10:59:00,79.2,29.2,29.82,SSE,154,8.0,22.0,16,0.00,,---,0.00,VWS V14.00,2013-04-24 17:59:00,
2013-04-24 11:04:00,79.1,29.1,29.83,SSE,154,13.0,18.0,16,0.00,,---,0.00,VWS V14.00,2013-04-24 18:04:00,
2013-04-24 11:09:00,78.8,27.3,29.82,SSE,154,3.0,14.0,15,0.00,,---,0.00,VWS V14.00,2013-04-24 18:09:00,
2013-04-24 11:14:00,78.8,25.6,29.82,SSE,154,6.0,14.0,14,0.00,,---,0.00,VWS V14.00,2013-04-24 18:14:00,
2013-04-24 11:19:00,79.3,27.7,29.82,SSE,154,14.0,18.0,15,0.00,,---,0.00,VWS V14.00,2013-04-24 18:19:00,
2013-04-24 11:24:00,78.9,28.9,29.82,SSE,154,3.0,18.0,16,0.00,,---,0.00,VWS V14.00,2013-04-24 18:24:00,
2013-04-24 11:29:00,78.9,31.8,29.82,SSE,154,4.0,15.0,18,0.00,,---,0.00,VWS V14.00,2013-04-24 18:29:00,
2013-04-24 11:34:00,79.5,30.9,29.81,SSE,154,12.0,17.0,17,0.00,,---,0.00,VWS V14.00,2013-04-24 18:34:00,
2013-04-24 11:39:00,79.5,32.3,29.81,SSE,154,8.0,20.0,18,0.00,,---,0.00,VWS V14.00,2013-04-24 18:39:00,
2013-04-24 11:44:00,79.6,31.0,29.81,SSE,154,12.0,16.0,17,0.00,,---,0.00,VWS V14.00,2013-04-24 18:44:00,
2013-04-24 11:49:00,80.4,30.1,29.81,SSE,154,9.0,18.0,16,0.00,,---,0.00,VWS V14.00,2013-04-24 18:49:00,
2013-04-24 11:54:00,80.5,30.2,29.81,SSE,154,10.0,14.0,16,0.00,,---,0.00,VWS V14.00,2013-04-24 18:54:00,
2013-04-24 11:59:00,81.0,30.6,29.80,SSE,155,9.0,17.0,16,0.00,,---,0.00,VWS V14.00,2013-04-24 18:59:00,
2013-04-24 12:04:00,81.2,32.3,29.80,SSE,158,6.0,20.0,17,0.00,,---,0.00,VWS V14.00,2013-04-24 19:04:00,
2013-04-24 12:10:00,81.4,31.0,29.80,SSE,158,10.0,19.0,16,0.00,,---,0.00,VWS V14.00,2013-04-24 19:10:00,
2013-04-24 12:15:00,81.5,29.4,29.80,SE,146,8.0,18.0,15,0.00,,---,0.00,VWS V14.00,2013-04-24 19:15:00,
2013-04-24 12:20:00,81.3,29.3,29.80,SSE,147,15.0,17.0,15,0.00,,---,0.00,VWS V14.00,2013-04-24 19:20:00,
2013-04-24 12:25:00,80.7,28.8,29.79,SSE,157,7.0,23.0,15,0.00,,---,0.00,VWS V14.00,2013-04-24 19:25:00,
2013-04-24 12:30:00,81.1,29.1,29.79,SSE,157,9.0,24.0,15,0.00,,---,0.00,VWS V14.00,2013-04-24 19:30:00,
2013-04-24 12:35:00,81.3,29.3,29.79,SSE,157,6.0,13.0,15,0.00,,---,0.00,VWS V14.00,2013-04-24 19:35:00,
2013-04-24 12:40:00,81.7,27.9,29.79,SSE,157,5.0,17.0,14,0.00,,---,0.00,VWS V14.00,2013-04-24 19:40:00,
2013-04-24 12:45:00,82.0,26.4,29.79,SSE,158,8.0,20.0,13,0.00,,---,0.00,VWS V14.00,2013-04-24 19:45:00,
2013-04-24 12:50:00,82.7,25.0,29.78,SSE,163,1.0,20.0,12,0.00,,---,0.00,VWS V14.00,2013-04-24 19:50:00,
2013-04-24 12:55:00,83.1,25.3,29.78,SSE,149,14.0,16.0,12,0.00,,---,0.00,VWS V14.00,2013-04-24 19:55:00,
2013-04-24 13:00:00,83.1,25.3,29.78,SSE,153,8.0,24.0,12,0.00,,---,0.00,VWS V14.00,2013-04-24 20:00:00,
2013-04-24 13:05:00,83.1,23.2,29.78,SSE,161,4.0,32.0,11,0.00,,---,0.00,VWS V14.00,2013-04-24 20:05:00,
2013-04-24 13:10:00,83.2,25.4,29.78,SSE,157,15.0,24.0,12,0.00,,---,0.00,VWS V14.00,2013-04-24 20:10:00,
2013-04-24 13:15:00,83.3,25.4,29.77,SSE,157,10.0,26.0,12,0.00,,---,0.00,VWS V14.00,2013-04-24 20:15:00,
2013-04-24 13:20:00,83.0,27.1,29.77,SSE,162,15.0,26.0,13,0.00,,---,0.00,VWS V14.00,2013-04-24 20:20:00,
2013-04-24 13:25:00,82.9,27.1,29.77,SSE,161,7.0,22.0,13,0.00,,---,0.00,VWS V14.00,2013-04-24 20:25:00,
2013-04-24 13:30:00,83.2,27.3,29.77,SSE,161,1.0,12.0,13,0.00,,---,0.00,VWS V14.00,2013-04-24 20:30:00,
2013-04-24 13:35:00,83.2,23.3,29.76,SSE,159,10.0,28.0,11,0.00,,---,0.00,VWS V14.00,2013-04-24 20:35:00,
2013-04-24 13:40:00,83.5,21.3,29.76,SSE,150,19.0,22.0,10,0.00,,---,0.00,VWS V14.00,2013-04-24 20:40:00,
2013-04-24 13:45:00,83.6,21.3,29.76,SSE,155,10.0,26.0,10,0.00,,---,0.00,VWS V14.00,2013-04-24 20:45:00,
2013-04-24 13:50:00,83.6,23.6,29.76,SSE,161,10.0,26.0,11,0.00,,---,0.00,VWS V14.00,2013-04-24 20:50:00,
2013-04-24 13:55:00,83.7,21.4,29.75,SSE,161,6.0,16.0,10,0.00,,---,0.00,VWS V14.00,2013-04-24 20:55:00,
2013-04-24 14:00:00,84.2,24.0,29.75,SE,138,9.0,26.0,11,0.00,,---,0.00,VWS V14.00,2013-04-24 21:00:00,
2013-04-24 14:05:00,85.2,22.5,29.74,SE,140,12.0,19.0,10,0.00,,---,0.00,VWS V14.00,2013-04-24 21:05:00,
2013-04-24 14:10:00,85.4,22.7,29.74,SE,144,8.0,20.0,10,0.00,,---,0.00,VWS V14.00,2013-04-24 21:10:00,
2013-04-24 14:15:00,85.7,22.9,29.74,SSE,150,21.0,23.0,10,0.00,,---,0.00,VWS V14.00,2013-04-24 21:15:00,
2013-04-24 14:20:00,85.3,22.6,29.74,SSE,159,24.0,32.0,10,0.00,,---,0.00,VWS V14.00,2013-04-24 21:20:00,
2013-04-24 14:25:00,85.1,22.5,29.74,SSE,165,13.0,25.0,10,0.00,,---,0.00,VWS V14.00,2013-04-24 21:25:00,
2013-04-24 14:30:00,84.8,22.2,29.74,SSE,152,11.0,22.0,10,0.00,,---,0.00,VWS V14.00,2013-04-24 21:30:00,
2013-04-24 14:35:00,85.0,22.4,29.74,SSE,161,32.0,32.0,10,0.00,,---,0.00,VWS V14.00,2013-04-24 21:35:00,
2013-04-24 14:40:00,85.0,22.4,29.73,SSE,153,14.0,20.0,10,0.00,,---,0.00,VWS V14.00,2013-04-24 21:40:00,
2013-04-24 14:45:00,85.1,22.5,29.73,SE,142,6.0,23.0,10,0.00,,---,0.00,VWS V14.00,2013-04-24 21:45:00,
2013-04-24 14:50:00,85.0,19.9,29.73,SSE,159,9.0,20.0,9,0.00,,---,0.00,VWS V14.00,2013-04-24 21:50:00,
2013-04-24 14:55:00,86.1,18.0,29.73,SSE,159,6.0,28.0,8,0.00,,---,0.00,VWS V14.00,2013-04-24 21:55:00,
2013-04-24 15:00:00,85.9,17.8,29.73,SSE,150,8.0,29.0,8,0.00,,---,0.00,VWS V14.00,2013-04-24 22:00:00,
2013-04-24 15:05:00,85.8,17.8,29.73,SE,136,5.0,23.0,8,0.00,,---,0.00,VWS V14.00,2013-04-24 22:05:00,
2013-04-24 15:10:00,85.5,17.5,29.73,SE,137,22.0,25.0,8,0.00,,---,0.00,VWS V14.00,2013-04-24 22:10:00,
2013-04-24 15:15:00,85.9,20.6,29.72,SSE,157,14.0,24.0,9,0.00,,---,0.00,VWS V14.00,2013-04-24 22:15:00,
2013-04-24 15:20:00,85.8,17.8,29.72,SSE,155,8.0,26.0,8,0.00,,---,0.00,VWS V14.00,2013-04-24 22:20:00,
2013-04-24 15:25:00,85.9,17.8,29.72,SSE,151,10.0,28.0,8,0.00,,---,0.00,VWS V14.00,2013-04-24 22:25:00,
2013-04-24 15:30:00,85.5,17.5,29.72,SE,135,10.0,24.0,8,0.00,,---,0.00,VWS V14.00,2013-04-24 22:30:00,
2013-04-24 15:35:00,85.6,17.6,29.71,SSE,148,15.0,28.0,8,0.00,,---,0.00,VWS V14.00,2013-04-24 22:35:00,
2013-04-24 15:40:00,85.9,17.8,29.71,SE,141,16.0,26.0,8,0.00,,---,0.00,VWS V14.00,2013-04-24 22:40:00,
2013-04-24 15:45:00,85.8,20.5,29.71,SE,139,11.0,25.0,9,0.00,,---,0.00,VWS V14.00,2013-04-24 22:45:00,
2013-04-24 15:50:00,85.8,17.8,29.70,SE,137,8.0,28.0,8,0.00,,---,0.00,VWS V14.00,2013-04-24 22:50:00,
2013-04-24 15:55:00,86.1,14.9,29.70,SSE,156,11.0,19.0,7,0.00,,---,0.00,VWS V14.00,2013-04-24 22:55:00,
2013-04-24 16:00:00,85.9,14.8,29.70,ESE,122,9.0,28.0,7,0.00,,---,0.00,VWS V14.00,2013-04-24 23:00:00,
2013-04-24 16:05:00,86.1,18.0,29.70,SE,145,21.0,26.0,8,0.00,,---,0.00,VWS V14.00,2013-04-24 23:05:00,
2013-04-24 16:10:00,86.1,14.9,29.70,SSE,157,6.0,27.0,7,0.00,,---,0.00,VWS V14.00,2013-04-24 23:10:00,
2013-04-24 16:15:00,85.6,17.6,29.69,SE,145,14.0,21.0,8,0.00,,---,0.00,VWS V14.00,2013-04-24 23:15:00,
2013-04-24 16:20:00,85.8,17.8,29.69,SSE,153,8.0,23.0,8,0.00,,---,0.00,VWS V14.00,2013-04-24 23:20:00,
2013-04-24 16:25:00,85.9,17.8,29.69,SSE,156,2.0,24.0,8,0.00,,---,0.00,VWS V14.00,2013-04-24 23:25:00,
2013-04-24 16:30:00,86.2,18.1,29.69,SE,138,21.0,21.0,8,0.00,,---,0.00,VWS V14.00,2013-04-24 23:30:00,
2013-04-24 16:35:00,85.9,20.6,29.69,SE,130,16.0,28.0,9,0.00,,---,0.00,VWS V14.00,2013-04-24 23:35:00,
2013-04-24 16:40:00,85.9,20.6,29.70,SE,140,13.0,26.0,9,0.00,,---,0.00,VWS V14.00,2013-04-24 23:40:00,
2013-04-24 16:45:00,85.8,17.8,29.69,SE,130,10.0,23.0,8,0.00,,---,0.00,VWS V14.00,2013-04-24 23:45:00,
2013-04-24 16:50:00,86.0,17.9,29.69,SE,133,11.0,18.0,8,0.00,,---,0.00,VWS V14.00,2013-04-24 23:50:00,
2013-04-24 16:55:00,86.0,17.9,29.69,SSE,151,0.0,24.0,8,0.00,,---,0.00,VWS V14.00,2013-04-24 23:55:00,
2013-04-24 17:00:00,86.3,18.1,29.69,SE,145,15.0,24.0,8,0.00,,---,0.00,VWS V14.00,2013-04-25 00:00:00,
2013-04-24 17:05:00,86.1,18.0,29.69,SE,144,14.0,19.0,8,0.00,,---,0.00,VWS V14.00,2013-04-25 00:05:00,
2013-04-24 17:10:00,85.5,17.5,29.69,SE,137,4.0,16.0,8,0.00,,---,0.00,VWS V14.00,2013-04-25 00:10:00,
2013-04-24 17:15:00,85.6,17.6,29.69,SE,136,2.0,21.0,8,0.00,,---,0.00,VWS V14.00,2013-04-25 00:15:00,
2013-04-24 17:20:00,85.4,17.5,29.69,SE,133,3.0,16.0,8,0.00,,---,0.00,VWS V14.00,2013-04-25 00:20:00,
2013-04-24 17:26:00,85.7,20.4,29.69,SE,137,0.0,17.0,9,0.00,,---,0.00,VWS V14.00,2013-04-25 00:26:00,
2013-04-24 17:31:00,85.9,17.8,29.70,SE,139,12.0,13.0,8,0.00,,---,0.00,VWS V14.00,2013-04-25 00:31:00,
2013-04-24 17:36:00,83.1,46.7,29.69,WNW,295,26.0,40.0,28,0.00,,---,0.00,VWS V14.00,2013-04-25 00:36:00,
2013-04-24 17:41:00,80.2,46.9,29.70,WNW,293,26.0,40.0,31,0.00,,---,0.00,VWS V14.00,2013-04-25 00:41:00,
2013-04-24 17:46:00,78.9,48.2,29.69,West,263,35.0,49.0,34,0.00,,---,0.00,VWS V14.00,2013-04-25 00:46:00,
2013-04-24 17:51:00,78.4,48.5,29.69,NNW,331,28.0,40.0,35,0.00,,---,0.00,VWS V14.00,2013-04-25 00:51:00,
2013-04-24 17:56:00,78.4,47.7,29.70,WNW,293,27.0,38.0,34,0.00,,---,0.00,VWS V14.00,2013-04-25 00:56:00,
2013-04-24 18:01:00,77.9,48.8,29.70,NW,309,25.0,38.0,36,0.00,,---,0.00,VWS V14.00,2013-04-25 01:01:00,
2013-04-24 18:06:00,77.2,48.2,29.69,WNW,303,28.0,36.0,36,0.00,,---,0.00,VWS V14.00,2013-04-25 01:06:00,
2013-04-24 18:11:00,76.7,48.5,29.70,WNW,292,35.0,38.0,37,0.00,,---,0.00,VWS V14.00,2013-04-25 01:11:00,
2013-04-24 18:16:00,76.1,48.7,29.70,NW,306,36.0,46.0,38,0.00,,---,0.00,VWS V14.00,2013-04-25 01:16:00,
2013-04-24 18:21:00,75.6,48.9,29.70,West,270,32.0,44.0,39,0.00,,---,0.00,VWS V14.00,2013-04-25 01:21:00,
2013-04-24 18:26:00,75.1,49.2,29.71,WNW,289,24.0,36.0,40,0.00,,---,0.00,VWS V14.00,2013-04-25 01:26:00,
2013-04-24 18:31:00,74.5,49.9,29.70,NW,321,44.0,51.0,42,0.00,,---,0.00,VWS V14.00,2013-04-25 01:31:00,
2013-04-24 18:36:00,73.6,49.8,29.70,WNW,298,36.0,52.0,43,0.00,,---,0.00,VWS V14.00,2013-04-25 01:36:00,
2013-04-24 18:41:00,73.1,49.3,29.71,WNW,298,28.0,45.0,43,0.00,,---,0.00,VWS V14.00,2013-04-25 01:41:00,
2013-04-24 18:46:00,72.6,49.5,29.71,WNW,296,26.0,41.0,44,0.00,,---,0.00,VWS V14.00,2013-04-25 01:46:00,
2013-04-24 18:51:00,72.4,49.9,29.71,WNW,299,35.0,46.0,45,0.00,,---,0.00,VWS V14.00,2013-04-25 01:51:00,
2013-04-24 18:56:00,71.6,49.2,29.70,NNW,336,23.0,45.0,45,0.00,,---,0.00,VWS V14.00,2013-04-25 01:56:00,
2013-04-24 19:01:00,71.2,49.4,29.71,NW,319,21.0,44.0,46,0.00,,---,0.00,VWS V14.00,2013-04-25 02:01:00,
2013-04-24 19:06:00,70.9,49.1,29.70,WNW,288,15.0,41.0,46,0.00,,---,0.00,VWS V14.00,2013-04-25 02:06:00,
2013-04-24 19:11:00,70.4,48.7,29.70,WNW,292,21.0,42.0,46,0.00,,---,0.00,VWS V14.00,2013-04-25 02:11:00,
2013-04-24 19:16:00,70.2,49.0,29.70,WNW,288,39.0,51.0,47,0.00,,---,0.00,VWS V14.00,2013-04-25 02:16:00,
2013-04-24 19:21:00,69.7,49.2,29.71,NW,309,19.0,43.0,48,0.00,,---,0.00,VWS V14.00,2013-04-25 02:21:00,
2013-04-24 19:26:00,69.3,48.8,29.70,NW,326,32.0,47.0,48,0.00,,---,0.00,VWS V14.00,2013-04-25 02:26:00,
2013-04-24 19:31:00,68.9,49.0,29.70,WNW,295,26.0,45.0,49,0.00,,---,0.00,VWS V14.00,2013-04-25 02:31:00,
2013-04-24 19:36:00,68.6,49.2,29.70,WNW,301,24.0,40.0,50,0.00,,---,0.00,VWS V14.00,2013-04-25 02:36:00,
2013-04-24 19:41:00,68.3,49.0,29.70,NW,304,16.0,49.0,50,0.00,,---,0.00,VWS V14.00,2013-04-25 02:41:00,
2013-04-24 19:46:00,67.9,49.1,29.70,WNW,292,34.0,43.0,51,0.00,,---,0.00,VWS V14.00,2013-04-25 02:46:00,
2013-04-24 19:51:00,67.7,48.9,29.70,NW,321,23.0,36.0,51,0.00,,---,0.00,VWS V14.00,2013-04-25 02:51:00,
2013-04-24 19:56:00,67.2,49.0,29.70,WNW,299,40.0,48.0,52,0.00,,---,0.00,VWS V14.00,2013-04-25 02:56:00,
2013-04-24 20:01:00,66.8,49.1,29.70,WNW,294,30.0,41.0,53,0.00,,---,0.00,VWS V14.00,2013-04-25 03:01:00,
2013-04-24 20:06:00,66.5,48.9,29.70,WNW,297,36.0,48.0,53,0.00,,---,0.00,VWS V14.00,2013-04-25 03:06:00,
2013-04-24 20:11:00,66.4,48.8,29.71,North,360,28.0,53.0,53,0.00,,---,0.00,VWS V14.00,2013-04-25 03:11:00,
2013-04-24 20:16:00,65.9,48.8,29.71,WNW,296,33.0,50.0,54,0.00,,---,0.00,VWS V14.00,2013-04-25 03:16:00,
2013-04-24 20:21:00,65.7,49.1,29.71,NW,305,36.0,43.0,55,0.00,,---,0.00,VWS V14.00,2013-04-25 03:21:00,
2013-04-24 20:26:00,65.5,48.4,29.71,NW,315,37.0,46.0,54,0.00,,---,0.00,VWS V14.00,2013-04-25 03:26:00,
2013-04-24 20:31:00,65.5,48.4,29.72,WNW,299,24.0,46.0,54,0.00,,---,0.00,VWS V14.00,2013-04-25 03:31:00,
2013-04-24 20:36:00,65.4,48.3,29.72,WNW,293,27.0,46.0,54,0.00,,---,0.00,VWS V14.00,2013-04-25 03:36:00,
2013-04-24 20:41:00,65.1,48.5,29.72,WNW,297,33.0,42.0,55,0.00,,---,0.00,VWS V14.00,2013-04-25 03:41:00,
2013-04-24 20:46:00,65.1,48.1,29.73,NW,306,33.0,43.0,54,0.00,,---,0.00,VWS V14.00,2013-04-25 03:46:00,
2013-04-24 20:51:00,65.0,48.0,29.73,NW,306,25.0,45.0,54,0.00,,---,0.00,VWS V14.00,2013-04-25 03:51:00,
2013-04-24 20:56:00,64.7,48.2,29.73,WNW,297,36.0,51.0,55,0.00,,---,0.00,VWS V14.00,2013-04-25 03:56:00,
2013-04-24 21:01:00,64.7,48.2,29.73,NW,308,27.0,50.0,55,0.00,,---,0.00,VWS V14.00,2013-04-25 04:01:00,
2013-04-24 21:06:00,64.8,47.8,29.74,NNW,327,32.0,46.0,54,0.00,,---,0.00,VWS V14.00,2013-04-25 04:06:00,
2013-04-24 21:11:00,64.6,48.1,29.74,WNW,300,11.0,12.0,55,0.00,,---,0.00,VWS V14.00,2013-04-25 04:11:00,
2013-04-24 21:16:00,64.4,47.9,29.74,NW,304,48.0,48.0,55,0.00,,---,0.00,VWS V14.00,2013-04-25 04:16:00,
2013-04-24 21:21:00,63.9,47.9,29.75,WNW,300,32.0,32.0,56,0.00,,---,0.00,VWS V14.00,2013-04-25 04:21:00,
2013-04-24 21:26:00,63.8,47.8,29.74,NW,307,48.0,48.0,56,0.00,,---,0.00,VWS V14.00,2013-04-25 04:26:00,
2013-04-24 21:31:00,63.8,47.8,29.75,NNW,327,37.0,37.0,56,0.00,,---,0.00,VWS V14.00,2013-04-25 04:31:00,
2013-04-24 21:36:00,63.7,47.7,29.75,WNW,302,34.0,37.0,56,0.00,,---,0.00,VWS V14.00,2013-04-25 04:36:00,
2013-04-24 21:41:00,63.6,47.6,29.74,WNW,301,27.0,35.0,56,0.00,,---,0.00,VWS V14.00,2013-04-25 04:41:00,
2013-04-24 21:46:00,63.5,47.5,29.75,NW,305,19.0,21.0,56,0.00,,---,0.00,VWS V14.00,2013-04-25 04:46:00,
2013-04-24 21:51:00,63.2,47.3,29.74,WNW,288,32.0,42.0,56,0.00,,---,0.00,VWS V14.00,2013-04-25 04:51:00,
2013-04-24 21:56:00,63.3,47.3,29.75,WNW,300,22.0,36.0,56,0.00,,---,0.00,VWS V14.00,2013-04-25 04:56:00,
2013-04-24 22:01:00,63.4,47.5,29.75,WNW,288,40.0,40.0,56,0.00,,---,0.00,VWS V14.00,2013-04-25 05:01:00,
2013-04-24 22:06:00,63.3,47.3,29.75,WNW,300,36.0,40.0,56,0.00,,---,0.00,VWS V14.00,2013-04-25 05:06:00,
2013-04-24 22:11:00,63.5,47.1,29.75,WNW,301,36.0,48.0,55,0.00,,---,0.00,VWS V14.00,2013-04-25 05:11:00,
2013-04-24 22:16:00,63.4,47.5,29.76,NNW,341,29.0,29.0,56,0.00,,---,0.00,VWS V14.00,2013-04-25 05:16:00,
2013-04-24 22:21:00,63.3,47.3,29.75,WNW,296,35.0,48.0,56,0.00,,---,0.00,VWS V14.00,2013-04-25 05:21:00,
2013-04-24 22:26:00,63.4,47.0,29.75,WNW,298,27.0,29.0,55,0.00,,---,0.00,VWS V14.00,2013-04-25 05:26:00,
2013-04-24 22:31:00,63.6,47.2,29.76,WNW,298,46.0,46.0,55,0.00,,---,0.00,VWS V14.00,2013-04-25 05:31:00,
2013-04-24 22:36:00,63.7,46.8,29.76,WNW,296,44.0,44.0,54,0.00,,---,0.00,VWS V14.00,2013-04-25 05:36:00,
2013-04-24 22:41:00,63.5,47.1,29.76,NW,315,28.0,41.0,55,0.00,,---,0.00,VWS V14.00,2013-04-25 05:41:00,
2013-04-24 22:46:00,63.4,47.0,29.75,NW,306,38.0,40.0,55,0.00,,---,0.00,VWS V14.00,2013-04-25 05:46:00,
2013-04-24 22:51:00,63.3,46.9,29.76,WNW,294,27.0,34.0,55,0.00,,---,0.00,VWS V14.00,2013-04-25 05:51:00,
2013-04-24 22:56:00,63.4,47.0,29.75,NW,309,27.0,38.0,55,0.00,,---,0.00,VWS V14.00,2013-04-25 05:56:00,
2013-04-24 23:01:00,63.3,46.9,29.76,NW,313,21.0,42.0,55,0.00,,---,0.00,VWS V14.00,2013-04-25 06:01:00,
2013-04-24 23:06:00,63.2,46.8,29.76,NW,304,19.0,28.0,55,0.00,,---,0.00,VWS V14.00,2013-04-25 06:06:00,
2013-04-24 23:11:00,63.3,46.9,29.76,WNW,298,23.0,30.0,55,0.00,,---,0.00,VWS V14.00,2013-04-25 06:11:00,
2013-04-24 23:17:00,63.2,46.8,29.76,WNW,300,27.0,28.0,55,0.00,,---,0.00,VWS V14.00,2013-04-25 06:17:00,
2013-04-24 23:22:00,62.9,47.0,29.76,NW,316,21.0,34.0,56,0.00,,---,0.00,VWS V14.00,2013-04-25 06:22:00,
2013-04-24 23:27:00,62.6,47.6,29.75,NW,314,23.0,50.0,58,0.00,,---,0.00,VWS V14.00,2013-04-25 06:27:00,
2013-04-24 23:32:00,62.6,47.2,29.76,NW,306,23.0,36.0,57,0.00,,---,0.00,VWS V14.00,2013-04-25 06:32:00,
2013-04-24 23:37:00,62.2,46.8,29.75,WNW,290,44.0,44.0,57,0.00,,---,0.00,VWS V14.00,2013-04-25 06:37:00,
2013-04-24 23:42:00,62.2,46.8,29.75,NW,306,18.0,34.0,57,0.00,,---,0.00,VWS V14.00,2013-04-25 06:42:00,
2013-04-24 23:47:00,61.9,47.0,29.75,WNW,291,30.0,42.0,58,0.00,,---,0.00,VWS V14.00,2013-04-25 06:47:00,
2013-04-24 23:52:00,61.7,46.8,29.75,West,279,48.0,48.0,58,0.00,,---,0.00,VWS V14.00,2013-04-25 06:52:00,
2013-04-24 23:57:00,61.5,47.1,29.75,NW,306,19.0,40.0,59,0.00,,---,0.00,VWS V14.00,2013-04-25 06:57:00,